createdAt,value
2018-01-29T00:05:03.757Z,97194
2018-01-29T00:10:31.930Z,97202
2018-01-29T00:16:00.106Z,97199
2018-01-29T00:21:28.296Z,97198
2018-01-29T00:26:57.229Z,97192
2018-01-29T00:32:25.434Z,97192
2018-01-29T00:37:54.952Z,97194
2018-01-29T00:43:23.168Z,97199
2018-01-29T00:48:51.371Z,97183
2018-01-29T00:54:19.568Z,97187
2018-01-29T00:59:49.467Z,97182
2018-01-29T01:05:17.898Z,97183
2018-01-29T01:10:48.039Z,97179
2018-01-29T01:16:16.467Z,97173
2018-01-29T01:22:09.759Z,97184
2018-01-29T01:27:38.739Z,97187
2018-01-29T01:33:06.952Z,97163
2018-01-29T01:38:35.151Z,97166
2018-01-29T01:44:07.121Z,97173
2018-01-29T01:49:35.568Z,97167
2018-01-29T01:55:03.737Z,97161
2018-01-29T02:00:31.914Z,97167
2018-01-29T02:06:00.849Z,97161
2018-01-29T02:11:30.035Z,97154
2018-01-29T02:16:58.246Z,97162
2018-01-29T02:22:26.458Z,97145
2018-01-29T02:27:54.633Z,97143
2018-01-29T02:33:22.812Z,97145
2018-01-29T02:38:50.993Z,97124
2018-01-29T02:44:19.952Z,97119
2018-01-29T02:49:51.278Z,97118
2018-01-29T02:55:19.439Z,97107
2018-01-29T03:00:48.386Z,97101
2018-01-29T03:06:17.322Z,97104
2018-01-29T03:11:46.280Z,97107
2018-01-29T03:17:16.470Z,97104
2018-01-29T03:22:44.724Z,97103
2018-01-29T03:28:13.201Z,97098
2018-01-29T03:33:41.409Z,97091
2018-01-29T03:39:10.602Z,97097
2018-01-29T03:44:38.798Z,97101
2018-01-29T03:50:07.032Z,97087
2018-01-29T03:55:35.460Z,97099
2018-01-29T04:01:04.577Z,97101
2018-01-29T04:06:32.745Z,97103
2018-01-29T04:12:08.317Z,97107
2018-01-29T04:17:37.338Z,97113
2018-01-29T04:23:05.545Z,97106
2018-01-29T04:28:33.720Z,97107
2018-01-29T04:34:01.902Z,97114
2018-01-29T04:39:31.064Z,97112
2018-01-29T04:44:59.237Z,97116
2018-01-29T04:50:28.191Z,97112
2018-01-29T04:55:56.362Z,97113
2018-01-29T05:01:24.556Z,97112
2018-01-29T05:06:52.759Z,97117
2018-01-29T05:12:20.955Z,97112
2018-01-29T05:17:49.930Z,97112
2018-01-29T05:23:19.241Z,97112
2018-01-29T05:28:51.628Z,97104
2018-01-29T05:34:19.991Z,97108
2018-01-29T05:39:48.208Z,97101
2018-01-29T05:45:27.069Z,97104
2018-01-29T05:50:56.079Z,97094
2018-01-29T05:56:26.368Z,97105
2018-01-29T06:01:54.569Z,97102
2018-01-29T06:07:24.215Z,97095
2018-01-29T06:12:52.416Z,97106
2018-01-29T06:18:20.651Z,97107
2018-01-29T06:23:48.839Z,97106
2018-01-29T06:29:17.048Z,97108
2018-01-29T06:34:46.011Z,97131
2018-01-29T06:40:14.202Z,97129
2018-01-29T06:45:43.163Z,97126
2018-01-29T06:51:11.344Z,97125
2018-01-29T06:56:39.547Z,97128
2018-01-29T07:02:07.764Z,97120
2018-01-29T07:07:35.965Z,97124
2018-01-29T07:13:04.185Z,97126
2018-01-29T07:18:32.379Z,97135
2018-01-29T07:24:00.570Z,97130
2018-01-29T07:29:46.802Z,97129
2018-01-29T07:35:15.007Z,97126
2018-01-29T07:40:43.198Z,97123
2018-01-29T07:46:11.387Z,97127
2018-01-29T07:51:40.341Z,97127
2018-01-29T07:57:08.523Z,97115
2018-01-29T08:02:37.492Z,97120
2018-01-29T08:08:05.687Z,97110
2018-01-29T08:13:33.896Z,97095
2018-01-29T08:19:02.128Z,97095
2018-01-29T08:24:30.343Z,97082
2018-01-29T08:29:58.529Z,97084
2018-01-29T08:35:26.736Z,97075
2018-01-29T08:40:54.911Z,97067
2018-01-29T08:46:23.132Z,97062
2018-01-29T08:51:51.311Z,97056
2018-01-29T08:57:19.516Z,97044
2018-01-29T09:02:48.653Z,97041
2018-01-29T09:08:16.837Z,97027
2018-01-29T09:13:45.050Z,97036
2018-01-29T09:19:13.258Z,97030
2018-01-29T09:24:41.481Z,97025
2018-01-29T09:30:09.684Z,97033
2018-01-29T09:35:38.697Z,97021
2018-01-29T09:41:06.899Z,97013
2018-01-29T09:46:35.104Z,97022
2018-01-29T09:52:03.306Z,97024
2018-01-29T09:57:31.523Z,97010
2018-01-29T10:02:59.706Z,97005
2018-01-29T10:08:33.221Z,96984
2018-01-29T10:14:01.417Z,96981
2018-01-29T10:19:29.621Z,96964
2018-01-29T10:24:57.825Z,96962
2018-01-29T10:30:26.050Z,96951
2018-01-29T10:35:54.239Z,96951
2018-01-29T10:41:23.208Z,96940
2018-01-29T10:46:51.388Z,96924
2018-01-29T10:52:20.352Z,96915
2018-01-29T10:57:48.551Z,96903
2018-01-29T11:03:17.522Z,96889
2018-01-29T11:08:45.775Z,96875
2018-01-29T11:14:13.996Z,96873
2018-01-29T11:19:42.210Z,96855
2018-01-29T11:25:10.400Z,96850
2018-01-29T11:30:38.615Z,96840
2018-01-29T11:36:06.829Z,96837
2018-01-29T11:41:35.047Z,96830
2018-01-29T11:47:03.248Z,96820
2018-01-29T11:52:32.221Z,96812
2018-01-29T11:58:00.442Z,96791
2018-01-29T12:03:28.694Z,96780
2018-01-29T12:08:56.916Z,96781
2018-01-29T12:14:25.604Z,96768
2018-01-29T12:19:53.858Z,96748
2018-01-29T12:25:22.031Z,96748
2018-01-29T12:30:51.026Z,96741
2018-01-29T12:36:19.219Z,96721
2018-01-29T12:41:47.427Z,96708
2018-01-29T12:47:15.654Z,96699
2018-01-29T12:52:43.930Z,96688
2018-01-29T12:58:12.145Z,96680
2018-01-29T13:03:40.341Z,96676
2018-01-29T13:09:08.587Z,96664
2018-01-29T13:14:36.850Z,96655
2018-01-29T13:20:05.813Z,96645
2018-01-29T13:25:34.036Z,96643
2018-01-29T13:31:02.221Z,96628
2018-01-29T13:36:31.223Z,96628
2018-01-29T13:41:59.550Z,96621
2018-01-29T13:47:27.786Z,96615
2018-01-29T13:52:55.999Z,96606
2018-01-29T13:58:24.203Z,96605
2018-01-29T14:03:52.429Z,96601
2018-01-29T14:09:20.702Z,96608
2018-01-29T14:14:48.922Z,96597
2018-01-29T14:20:17.182Z,96593
2018-01-29T14:25:45.413Z,96578
2018-01-29T14:31:13.635Z,96570
2018-01-29T14:36:41.916Z,96567
2018-01-29T14:42:10.116Z,96560
2018-01-29T14:47:39.090Z,96554
2018-01-29T14:53:07.307Z,96547
2018-01-29T14:58:36.471Z,96526
2018-01-29T15:04:04.705Z,96525
2018-01-29T15:09:32.898Z,96530
2018-01-29T15:15:01.085Z,96529
2018-01-29T15:20:30.071Z,96531
2018-01-29T15:25:58.265Z,96523
2018-01-29T15:31:27.921Z,96494
2018-01-29T15:36:56.176Z,96521
2018-01-29T15:42:24.463Z,96533
2018-01-29T15:47:52.769Z,96531
2018-01-29T15:53:21.774Z,96521
2018-01-29T15:58:55.420Z,96528
2018-01-29T16:04:23.658Z,96523
2018-01-29T16:09:51.881Z,96526
2018-01-29T16:15:20.190Z,96520
2018-01-29T16:20:48.408Z,96528
2018-01-29T16:26:16.625Z,96511
2018-01-29T16:31:44.908Z,96522
2018-01-29T16:37:13.116Z,96518
2018-01-29T16:42:42.064Z,96511
2018-01-29T16:48:11.047Z,96509
2018-01-29T16:53:39.266Z,96493
2018-01-29T16:59:08.349Z,96511
2018-01-29T17:04:36.548Z,96515
2018-01-29T17:10:04.755Z,96512
2018-01-29T17:15:35.073Z,96516
2018-01-29T17:21:05.329Z,96520
2018-01-29T17:26:35.224Z,96515
2018-01-29T17:32:03.404Z,96512
2018-01-29T17:37:31.628Z,96520
2018-01-29T17:43:01.733Z,96518
2018-01-29T17:48:29.969Z,96511
2018-01-29T17:53:58.206Z,96526
2018-01-29T17:59:33.338Z,96526
2018-01-29T18:05:02.314Z,96538
2018-01-29T18:10:30.530Z,96537
2018-01-29T18:15:58.705Z,96546
2018-01-29T18:21:26.896Z,96544
2018-01-29T18:26:55.915Z,96546
2018-01-29T18:32:24.162Z,96551
2018-01-29T18:37:55.444Z,96559
2018-01-29T18:43:23.625Z,96563
2018-01-29T18:48:51.797Z,96563
2018-01-29T18:54:20.003Z,96572
2018-01-29T18:59:48.190Z,96572
2018-01-29T19:05:19.694Z,96558
2018-01-29T19:10:47.869Z,96564
2018-01-29T19:16:16.062Z,96562
2018-01-29T19:21:44.247Z,96581
2018-01-29T19:27:12.438Z,96577
2018-01-29T19:32:41.405Z,96574
2018-01-29T19:38:09.621Z,96589
2018-01-29T19:43:37.837Z,96593
2018-01-29T19:49:06.059Z,96595
2018-01-29T19:54:34.240Z,96600
2018-01-29T20:00:02.439Z,96616
2018-01-29T20:05:30.653Z,96613
2018-01-29T20:10:59.394Z,96631
2018-01-29T20:16:29.535Z,96616
2018-01-29T20:21:57.766Z,96618
2018-01-29T20:27:26.030Z,96623
2018-01-29T20:32:55.176Z,96635
2018-01-29T20:38:23.358Z,96637
2018-01-29T20:43:51.542Z,96634
2018-01-29T20:49:21.309Z,96644
2018-01-29T20:54:49.509Z,96667
2018-01-29T21:00:18.528Z,96660
2018-01-29T21:05:46.720Z,96646
2018-01-29T21:11:15.925Z,96652
2018-01-29T21:16:44.889Z,96652
2018-01-29T21:22:13.081Z,96652
2018-01-29T21:27:42.067Z,96661
2018-01-29T21:33:10.292Z,96668
2018-01-29T21:38:38.580Z,96697
2018-01-29T21:44:07.129Z,96697
2018-01-29T21:49:35.317Z,96714
2018-01-29T21:55:03.517Z,96719
2018-01-29T22:00:31.709Z,96704
2018-01-29T22:05:59.914Z,96716
2018-01-29T22:11:28.875Z,96734
2018-01-29T22:16:57.049Z,96702
2018-01-29T22:22:25.239Z,96731
2018-01-29T22:27:54.197Z,96748
2018-01-29T22:33:22.408Z,96741
2018-01-29T22:38:51.368Z,96736
2018-01-29T22:44:19.538Z,96733
2018-01-29T22:49:47.727Z,96726
2018-01-29T22:55:15.933Z,96734
2018-01-29T23:00:44.108Z,96745
2018-01-29T23:06:12.320Z,96742
2018-01-29T23:11:41.674Z,96740
2018-01-29T23:17:12.011Z,96715
2018-01-29T23:22:40.260Z,96721
2018-01-29T23:28:08.467Z,96710
2018-01-29T23:33:36.673Z,96714
2018-01-29T23:39:04.880Z,96729
2018-01-29T23:44:33.097Z,96721
2018-01-29T23:50:01.291Z,96722
2018-01-29T23:55:30.237Z,96711
